Time;durP1;ratioP1;P1;durP2;ratioP2;P2;SDS_P1;SDS_P2;PMS_P1;PMS_P2;Temp;Humidity;BMP_temperature;BMP_pressure;BME280_temperature;BME280_humidity;BME280_pressure;Samples;Min_cycle;Max_cycle;Signal;HPM_P1;HPM_P2
2022/02/23 00:17:34;;;;;;;5.50;1.90;;;6.40;99.90;;;;;;4953999;29;20043;-87
2022/02/23 00:20:04;;;;;;;2.00;0.97;;;6.30;99.90;;;;;;4952481;29;20058;-86
2022/02/23 00:22:34;;;;;;;1.33;0.90;;;6.30;99.90;;;;;;4957933;29;20036;-90
2022/02/23 00:38:21;;;;;;;5.83;1.30;;;6.30;99.90;;;;;;5024510;27;1446130;-88
2022/02/23 00:40:48;;;;;;;9.03;1.63;;;6.20;99.90;;;;;;5081665;28;20051;-87
2022/02/23 00:43:15;;;;;;;2.97;1.60;;;6.20;99.90;;;;;;5092370;28;20048;-86
2022/02/23 00:45:42;;;;;;;7.57;1.67;;;6.10;99.90;;;;;;5090922;28;20051;-84
2022/02/23 00:48:11;;;;;;;4.93;1.40;;;6.00;99.90;;;;;;5089000;28;20040;-86
2022/02/23 00:50:42;;;;;;;5.57;0.67;;;6.00;99.90;;;;;;5080830;28;20051;-89
2022/02/23 00:55:55;;;;;;;4.07;1.37;;;5.70;99.90;;;;;;5091242;28;20052;-90
2022/02/23 00:58:22;;;;;;;4.50;0.90;;;5.60;99.90;;;;;;5093713;28;20083;-87
2022/02/23 01:00:50;;;;;;;3.20;0.87;;;5.50;99.90;;;;;;5088048;28;20048;-88
2022/02/23 01:03:17;;;;;;;5.33;1.20;;;5.40;99.90;;;;;;5093473;28;20127;-86
2022/02/23 01:05:44;;;;;;;5.17;1.40;;;5.40;99.90;;;;;;5091134;28;20118;-86
2022/02/23 01:08:12;;;;;;;5.63;2.93;;;5.30;99.90;;;;;;5093532;28;20140;-88
2022/02/23 01:10:40;;;;;;;2.40;1.10;;;5.20;99.90;;;;;;5094902;28;20075;-89
2022/02/23 01:13:13;;;;;;;12.33;1.57;;;5.20;99.90;;;;;;5092027;28;20048;-89
2022/02/23 01:15:40;;;;;;;2.37;0.50;;;5.20;99.90;;;;;;5093349;28;20098;-89
2022/02/23 01:18:08;;;;;;;6.00;1.00;;;5.20;99.90;;;;;;5092943;28;20045;-89
2022/02/23 01:20:37;;;;;;;7.37;1.00;;;5.10;99.90;;;;;;5091054;28;20055;-89
2022/02/23 01:23:08;;;;;;;5.33;0.77;;;5.00;99.90;;;;;;5092867;28;20044;-89
2022/02/23 01:25:37;;;;;;;10.30;1.57;;;5.00;99.90;;;;;;5091576;28;20052;-88
2022/02/23 01:28:08;;;;;;;3.10;0.90;;;4.90;99.90;;;;;;5090561;28;20139;-91
2022/02/23 01:33:39;;;;;;;7.63;1.63;;;4.90;99.90;;;;;;5015653;27;4226858;-86
2022/02/23 01:36:06;;;;;;;2.97;1.10;;;4.80;99.90;;;;;;5151753;27;20142;-86
2022/02/23 01:38:33;;;;;;;5.90;0.90;;;4.80;99.90;;;;;;5153822;27;20472;-85
2022/02/23 01:41:01;;;;;;;8.93;1.67;;;4.80;99.90;;;;;;5143999;27;20049;-87
2022/02/23 01:43:29;;;;;;;6.37;1.63;;;4.80;99.90;;;;;;5136612;27;20046;-89
2022/02/23 01:45:57;;;;;;;7.33;1.77;;;4.80;99.90;;;;;;5147220;27;20503;-89
2022/02/23 01:53:47;;;;;;;12.70;2.07;;;4.90;99.90;;;;;;5160171;27;20069;-87
2022/02/23 01:56:15;;;;;;;4.40;1.67;;;4.90;99.90;;;;;;5144518;27;20043;-92
2022/02/23 01:58:42;;;;;;;8.23;1.10;;;4.90;99.90;;;;;;5165239;27;20039;-88
2022/02/23 02:01:10;;;;;;;9.07;1.73;;;5.00;99.90;;;;;;5160197;27;20087;-89
2022/02/23 02:03:39;;;;;;;5.80;1.83;;;5.00;99.90;;;;;;5169189;27;20031;-90
2022/02/23 02:06:09;;;;;;;7.53;2.37;;;5.10;99.90;;;;;;5149290;27;20050;-88
2022/02/23 02:08:35;;;;;;;4.43;1.67;;;5.20;99.90;;;;;;5134393;27;20050;-85
2022/02/23 02:11:02;;;;;;;5.93;2.50;;;5.20;99.90;;;;;;5137236;27;20058;-86
2022/02/23 02:13:30;;;;;;;7.23;1.60;;;5.20;99.90;;;;;;5138040;27;20123;-87
2022/02/23 02:15:56;;;;;;;12.23;1.50;;;5.20;99.90;;;;;;5143872;27;20047;-89
2022/02/23 02:18:23;;;;;;;5.70;1.77;;;5.20;99.90;;;;;;5144993;27;20050;-87
2022/02/23 02:20:53;;;;;;;10.07;1.67;;;5.30;99.90;;;;;;5175520;27;20054;-89
2022/02/23 02:23:22;;;;;;;3.47;1.43;;;5.30;99.90;;;;;;5175959;27;20075;-85
2022/02/23 02:25:48;;;;;;;6.40;1.83;;;5.30;99.90;;;;;;5165189;27;20054;-86
2022/02/23 02:28:15;;;;;;;7.17;2.37;;;5.30;99.90;;;;;;5150743;27;20051;-88
2022/02/23 02:30:43;;;;;;;12.33;2.37;;;5.40;99.90;;;;;;5153607;27;20057;-90
2022/02/23 02:33:10;;;;;;;5.33;1.73;;;5.40;99.90;;;;;;5154102;27;20058;-86
2022/02/23 02:35:38;;;;;;;5.70;1.23;;;5.40;99.90;;;;;;5136162;27;20138;-87
2022/02/23 02:38:07;;;;;;;12.70;2.50;;;5.50;99.90;;;;;;5132827;28;20418;-87
2022/02/23 02:40:36;;;;;;;10.67;2.60;;;5.50;99.90;;;;;;5132829;28;20050;-88
2022/02/23 02:43:05;;;;;;;6.97;1.77;;;5.60;99.90;;;;;;5128937;28;20047;-88
2022/02/23 02:45:32;;;;;;;4.97;0.90;;;5.60;99.90;;;;;;5119360;28;20043;-85
2022/02/23 02:47:59;;;;;;;18.63;1.83;;;5.60;99.90;;;;;;5117150;27;20082;-86
2022/02/23 02:50:26;;;;;;;5.60;2.37;;;5.60;99.90;;;;;;5136354;27;20401;-86
2022/02/23 02:52:53;;;;;;;6.23;1.40;;;5.60;99.90;;;;;;5120548;27;20100;-86
2022/02/23 02:55:21;;;;;;;13.77;2.10;;;5.60;99.90;;;;;;5137290;27;20047;-85
2022/02/23 02:57:51;;;;;;;6.73;1.27;;;5.70;99.90;;;;;;5138686;27;20058;-92
2022/02/23 03:00:19;;;;;;;5.10;1.27;;;5.70;99.90;;;;;;5146203;27;20051;-93
2022/02/23 03:02:47;;;;;;;8.03;2.10;;;5.70;99.90;;;;;;5119697;28;20139;-90
2022/02/23 03:05:14;;;;;;;9.43;2.30;;;5.70;99.90;;;;;;5120188;27;20054;-93
2022/02/23 03:07:41;;;;;;;2.80;1.37;;;5.70;99.90;;;;;;5119520;28;20362;-89
2022/02/23 03:10:09;;;;;;;8.30;1.90;;;5.70;99.90;;;;;;5118247;28;20366;-88
2022/02/23 03:12:38;;;;;;;5.97;1.40;;;5.70;99.90;;;;;;5133232;27;20054;-86
2022/02/23 03:15:07;;;;;;;9.27;2.40;;;5.70;99.90;;;;;;5137700;27;20058;-87
2022/02/23 03:17:35;;;;;;;7.57;1.97;;;5.70;99.90;;;;;;5139354;27;20043;-86
2022/02/23 03:20:02;;;;;;;9.33;1.70;;;5.70;99.90;;;;;;5143394;27;20062;-86
2022/02/23 03:22:29;;;;;;;6.70;1.83;;;5.70;99.90;;;;;;5139830;27;20073;-88
2022/02/23 03:24:56;;;;;;;4.33;3.37;;;5.70;99.90;;;;;;5139159;27;20047;-87
2022/02/23 03:27:23;;;;;;;11.83;1.93;;;5.70;99.90;;;;;;5136768;27;20511;-87
2022/02/23 03:29:50;;;;;;;3.77;1.17;;;5.60;99.90;;;;;;5139049;27;20047;-88
2022/02/23 03:32:18;;;;;;;9.37;1.50;;;5.60;99.90;;;;;;5136793;27;20434;-85
2022/02/23 03:34:45;;;;;;;8.40;1.93;;;5.60;99.90;;;;;;5125068;27;20464;-86
2022/02/23 03:37:12;;;;;;;10.37;1.70;;;5.60;99.90;;;;;;5132042;27;20050;-86
2022/02/23 03:39:39;;;;;;;6.57;1.27;;;5.60;99.90;;;;;;5135956;27;20055;-87
2022/02/23 03:42:07;;;;;;;7.67;2.50;;;5.60;99.90;;;;;;5141657;27;20047;-85
2022/02/23 03:44:34;;;;;;;3.27;1.20;;;5.60;99.90;;;;;;5140363;27;20051;-85
2022/02/23 03:47:01;;;;;;;18.17;2.17;;;5.60;99.90;;;;;;5143898;27;20046;-85
2022/02/23 03:49:29;;;;;;;14.27;1.83;;;5.70;99.90;;;;;;5136801;27;20047;-84
2022/02/23 03:51:56;;;;;;;9.13;1.60;;;5.60;99.90;;;;;;5130847;27;20050;-86
2022/02/23 03:54:23;;;;;;;8.40;1.97;;;5.60;99.90;;;;;;5136609;27;20047;-86
2022/02/23 03:56:51;;;;;;;8.20;1.90;;;5.60;99.90;;;;;;5134261;27;20051;-86
2022/02/23 03:59:19;;;;;;;7.93;2.00;;;5.60;99.90;;;;;;5123315;27;20054;-89
2022/02/23 04:01:47;;;;;;;4.70;1.30;;;5.60;99.90;;;;;;5128940;27;20044;-86
2022/02/23 04:04:16;;;;;;;3.60;1.50;;;5.60;99.90;;;;;;5134049;27;20058;-86
2022/02/23 04:06:44;;;;;;;7.47;1.53;;;5.50;99.90;;;;;;5137012;27;20058;-86
2022/02/23 04:09:12;;;;;;;13.07;1.47;;;5.60;99.90;;;;;;5140131;27;20046;-86
2022/02/23 04:11:40;;;;;;;3.07;1.40;;;5.60;99.90;;;;;;5146050;27;20040;-85
2022/02/23 04:14:08;;;;;;;7.17;1.50;;;5.60;99.90;;;;;;5145471;27;20047;-86
2022/02/23 04:16:37;;;;;;;9.47;3.23;;;5.60;99.90;;;;;;5131392;27;20396;-87
2022/02/23 04:19:05;;;;;;;9.80;1.33;;;5.60;99.90;;;;;;5124067;27;20403;-86
2022/02/23 04:21:32;;;;;;;5.27;2.03;;;5.60;99.90;;;;;;5142085;27;20151;-88
2022/02/23 04:24:02;;;;;;;9.10;1.77;;;5.70;99.90;;;;;;5139083;27;20385;-88
2022/02/23 04:26:30;;;;;;;3.47;1.30;;;5.60;99.90;;;;;;5141655;27;20478;-87
2022/02/23 04:28:57;;;;;;;4.97;1.00;;;5.50;99.90;;;;;;5131657;27;20051;-88
2022/02/23 04:31:24;;;;;;;10.93;2.77;;;5.50;99.90;;;;;;5122001;27;20481;-86
2022/02/23 04:33:51;;;;;;;2.73;1.17;;;5.40;99.90;;;;;;5126048;27;20066;-86
2022/02/23 04:36:19;;;;;;;8.40;1.30;;;5.20;99.90;;;;;;5116973;28;20047;-86
2022/02/23 04:38:46;;;;;;;11.43;1.53;;;5.20;99.90;;;;;;5118429;27;20073;-87
2022/02/23 04:41:15;;;;;;;7.30;1.37;;;5.00;99.90;;;;;;5130067;27;20137;-86
2022/02/23 04:43:43;;;;;;;7.30;1.03;;;5.00;99.90;;;;;;5127852;27;20051;-87
2022/02/23 04:46:12;;;;;;;7.73;1.67;;;5.00;99.90;;;;;;5138112;27;20043;-85
2022/02/23 04:48:41;;;;;;;3.83;0.70;;;4.90;99.90;;;;;;5139038;27;20455;-84
2022/02/23 04:51:07;;;;;;;5.90;1.73;;;4.90;99.90;;;;;;5137490;27;20051;-84
2022/02/23 04:53:38;;;;;;;4.23;1.40;;;4.80;99.90;;;;;;5137387;27;20404;-88
2022/02/23 04:56:07;;;;;;;26.43;11.27;;;4.70;99.90;;;;;;5139797;27;20053;-85
2022/02/23 04:58:37;;;;;;;10.30;6.00;;;4.60;99.90;;;;;;5138266;27;20055;-87
2022/02/23 05:01:05;;;;;;;4.13;1.43;;;4.70;99.90;;;;;;5119751;28;20054;-85
2022/02/23 05:03:32;;;;;;;4.27;0.97;;;4.70;99.90;;;;;;5117656;28;20050;-84
2022/02/23 05:06:00;;;;;;;4.67;1.17;;;4.60;99.90;;;;;;5123313;28;20059;-87
2022/02/23 05:08:27;;;;;;;8.70;1.80;;;4.60;99.90;;;;;;5133927;28;20051;-87
2022/02/23 05:10:57;;;;;;;8.37;1.50;;;4.60;99.90;;;;;;5130130;28;20063;-87
2022/02/23 05:13:25;;;;;;;5.17;2.43;;;4.50;99.90;;;;;;5130299;27;20052;-86
2022/02/23 05:15:56;;;;;;;7.13;2.27;;;4.60;99.90;;;;;;5124831;28;20531;-87
2022/02/23 05:18:23;;;;;;;3.47;1.27;;;4.60;99.90;;;;;;5125225;28;20052;-87
2022/02/23 05:20:50;;;;;;;9.43;1.73;;;4.50;99.90;;;;;;5124341;27;20056;-87
2022/02/23 05:23:17;;;;;;;11.83;3.30;;;4.50;99.90;;;;;;5154443;27;20054;-90
2022/02/23 05:25:44;;;;;;;6.63;1.83;;;4.50;99.90;;;;;;5137959;27;20069;-87
2022/02/23 05:28:15;;;;;;;10.43;2.67;;;4.50;99.90;;;;;;5136623;27;20115;-88
2022/02/23 05:30:42;;;;;;;8.00;2.20;;;4.50;99.90;;;;;;5144387;28;20065;-86
2022/02/23 05:33:11;;;;;;;8.90;1.67;;;4.60;99.90;;;;;;5149573;28;20028;-84
2022/02/23 05:35:39;;;;;;;6.83;2.43;;;4.60;99.90;;;;;;5146980;27;20091;-85
2022/02/23 05:38:07;;;;;;;4.73;1.93;;;4.60;99.90;;;;;;5133203;28;20059;-86
2022/02/23 05:40:34;;;;;;;11.97;2.23;;;4.60;99.90;;;;;;5128070;28;20058;-86
2022/02/23 05:43:01;;;;;;;8.57;2.43;;;4.50;99.90;;;;;;5143739;28;20054;-86
2022/02/23 05:48:26;;;;;;;5.13;1.67;;;4.60;99.90;;;;;;5139020;28;20069;-88
2022/02/23 05:53:36;;;;;;;8.43;2.92;;;4.60;99.90;;;;;;5143779;28;20412;-86
2022/02/23 05:56:04;;;;;;;7.53;1.57;;;4.50;99.90;;;;;;5144139;27;20050;-88
2022/02/23 05:58:31;;;;;;;2.67;1.63;;;4.60;99.90;;;;;;5143268;28;20055;-85
2022/02/23 06:00:58;;;;;;;8.63;1.83;;;4.50;99.90;;;;;;5136098;28;20058;-84
2022/02/23 06:03:42;;;;;;;9.47;2.60;;;4.60;99.90;;;;;;5143640;28;20055;-84
2022/02/23 06:06:12;;;;;;;3.63;2.40;;;4.60;99.90;;;;;;5146165;28;20119;-84
2022/02/23 06:08:39;;;;;;;8.80;1.40;;;4.60;99.90;;;;;;5145218;28;20040;-83
2022/02/23 06:13:57;;;;;;;9.10;2.27;;;4.60;99.90;;;;;;5150420;27;20130;-86
2022/02/23 06:16:27;;;;;;;9.13;2.00;;;4.60;99.90;;;;;;5130086;28;20050;-86
2022/02/23 06:19:10;;;;;;;3.93;2.17;;;4.70;99.90;;;;;;5130136;27;20046;-84
2022/02/23 06:21:37;;;;;;;4.90;1.50;;;4.70;99.90;;;;;;5120882;27;20058;-83
2022/02/23 06:24:04;;;;;;;5.33;1.73;;;4.70;99.90;;;;;;5147845;27;20043;-83
2022/02/23 06:26:31;;;;;;;18.37;2.17;;;4.70;99.90;;;;;;5142214;27;20046;-84
2022/02/23 06:28:58;;;;;;;4.97;1.47;;;4.70;99.90;;;;;;5131887;27;20051;-84
2022/02/23 06:31:25;;;;;;;11.73;3.67;;;4.80;99.90;;;;;;5121731;28;20055;-83
2022/02/23 06:33:51;;;;;;;5.87;1.37;;;4.80;99.90;;;;;;5146012;27;20051;-83
2022/02/23 06:36:20;;;;;;;6.93;2.53;;;4.80;99.90;;;;;;5141482;27;20055;-83
2022/02/23 06:38:47;;;;;;;13.80;1.20;;;4.90;99.90;;;;;;5138239;27;20171;-83
2022/02/23 06:41:17;;;;;;;5.93;1.70;;;5.00;99.90;;;;;;5132999;27;20043;-83
2022/02/23 06:43:45;;;;;;;15.17;2.27;;;5.20;99.90;;;;;;5121662;27;20047;-84
2022/02/23 06:46:13;;;;;;;10.37;2.73;;;5.30;99.90;;;;;;5140977;27;20126;-82
2022/02/23 06:48:41;;;;;;;10.87;2.43;;;5.40;99.90;;;;;;5131543;27;20044;-83
2022/02/23 06:51:08;;;;;;;5.77;1.63;;;5.40;99.90;;;;;;5138092;27;20038;-84
2022/02/23 06:53:37;;;;;;;7.43;2.63;;;5.40;99.90;;;;;;5151317;27;20049;-84
2022/02/23 06:56:04;;;;;;;11.53;2.80;;;5.40;99.90;;;;;;5149011;27;20106;-84
2022/02/23 06:58:46;;;;;;;7.50;1.93;;;5.40;99.90;;;;;;5126070;27;20130;-84
2022/02/23 07:01:18;;;;;;;6.23;1.93;;;5.50;99.90;;;;;;5121962;27;20159;-85
2022/02/23 07:03:46;;;;;;;13.10;2.37;;;5.50;99.90;;;;;;5124290;27;20052;-84
2022/02/23 07:06:13;;;;;;;6.47;2.30;;;5.50;99.90;;;;;;5128682;27;20043;-84
2022/02/23 07:08:51;;;;;;;6.37;2.47;;;5.60;99.90;;;;;;5138590;27;20058;-84
2022/02/23 07:11:25;;;;;;;6.77;1.77;;;5.60;99.90;;;;;;5144779;27;20096;-83
2022/02/23 07:13:53;;;;;;;7.83;1.87;;;5.60;99.90;;;;;;5124940;27;20075;-83
2022/02/23 07:16:23;;;;;;;6.73;1.70;;;5.80;99.90;;;;;;5122385;27;20078;-84
2022/02/23 07:18:50;;;;;;;10.03;1.77;;;5.80;99.90;;;;;;5137994;27;20042;-85
2022/02/23 07:21:17;;;;;;;5.97;2.60;;;5.80;99.90;;;;;;5161414;27;20106;-86
2022/02/23 07:23:46;;;;;;;4.50;1.43;;;6.00;99.90;;;;;;5137823;27;20043;-82
2022/02/23 07:26:14;;;;;;;9.67;2.30;;;6.20;99.90;;;;;;5125739;28;20130;-85
2022/02/23 07:28:42;;;;;;;13.03;1.83;;;6.30;99.90;;;;;;5132116;27;20096;-84
2022/02/23 07:31:09;;;;;;;12.17;2.90;;;6.20;99.90;;;;;;5128146;27;20103;-84
2022/02/23 07:33:36;;;;;;;14.40;3.37;;;6.20;99.90;;;;;;5129994;27;20051;-84
2022/02/23 07:36:03;;;;;;;11.03;2.90;;;6.70;99.90;;;;;;5126773;27;20051;-88
2022/02/23 07:38:30;;;;;;;6.93;1.57;;;6.90;99.90;;;;;;5135106;27;20043;-86
2022/02/23 07:40:58;;;;;;;4.27;1.67;;;7.20;99.90;;;;;;5138790;27;20392;-85
2022/02/23 07:43:26;;;;;;;11.73;3.80;;;7.50;99.90;;;;;;5136688;27;20055;-88
2022/02/23 07:45:53;;;;;;;29.23;14.75;;;7.80;99.90;;;;;;5130282;27;20468;-77
2022/02/23 07:48:20;;;;;;;21.55;6.68;;;8.30;99.90;;;;;;5133344;27;20450;-77
2022/02/23 07:50:47;;;;;;;4.82;1.90;;;8.60;99.90;;;;;;5137413;27;20047;-85
2022/02/23 07:53:14;;;;;;;7.90;2.55;;;8.80;99.90;;;;;;5137253;27;20484;-85
2022/02/23 07:55:41;;;;;;;4.70;1.45;;;8.80;99.90;;;;;;5127197;27;20048;-85
2022/02/23 07:58:10;;;;;;;6.00;1.70;;;8.60;99.90;;;;;;5137892;27;20054;-85
2022/02/23 08:00:38;;;;;;;7.28;2.58;;;8.50;99.90;;;;;;5124600;27;20047;-85
2022/02/23 08:03:05;;;;;;;8.05;1.30;;;8.50;99.90;;;;;;5117710;28;20048;-86
2022/02/23 08:05:32;;;;;;;2.95;1.20;;;8.30;99.90;;;;;;5098760;28;20043;-85
2022/02/23 08:07:59;;;;;;;10.32;1.40;;;8.10;99.90;;;;;;5142928;27;20107;-84
2022/02/23 08:10:26;;;;;;;8.05;1.80;;;8.30;99.90;;;;;;5136674;27;20057;-84
2022/02/23 08:12:55;;;;;;;5.43;1.45;;;8.70;99.90;;;;;;5138330;27;20051;-84
2022/02/23 08:20:52;;;;;;;5.93;2.17;;;8.60;99.90;;;;;;5123772;27;20095;-85
2022/02/23 08:23:23;;;;;;;9.77;2.47;;;8.80;99.90;;;;;;5120583;28;20500;-86
2022/02/23 08:25:50;;;;;;;9.60;2.20;;;8.70;99.90;;;;;;5128863;27;20059;-85
2022/02/23 08:28:17;;;;;;;8.63;1.67;;;8.80;99.90;;;;;;5116226;28;20105;-83
2022/02/23 08:30:48;;;;;;;5.15;1.45;;;8.90;99.90;;;;;;5135169;27;20043;-82
2022/02/23 08:33:15;;;;;;;16.35;9.30;;;8.60;99.90;;;;;;5136424;27;20130;-82
2022/02/23 08:35:43;;;;;;;66.07;39.22;;;8.40;99.90;;;;;;5117364;27;20063;-85
2022/02/23 08:38:11;;;;;;;8.27;3.58;;;8.30;99.90;;;;;;5127228;27;20051;-83
2022/02/23 08:40:39;;;;;;;10.52;2.22;;;8.40;99.90;;;;;;5123605;27;20048;-86
2022/02/23 08:43:08;;;;;;;9.25;2.28;;;8.30;99.90;;;;;;5136977;27;20071;-85
2022/02/23 08:45:35;;;;;;;5.70;1.50;;;8.10;99.90;;;;;;5138424;27;20051;-84
2022/02/23 08:48:03;;;;;;;8.13;1.55;;;8.30;99.90;;;;;;5154650;27;20042;-84
2022/02/23 08:50:34;;;;;;;7.03;1.45;;;8.30;99.90;;;;;;5144698;27;20058;-86
2022/02/23 08:53:01;;;;;;;9.57;2.13;;;8.20;99.90;;;;;;5130226;27;20070;-86
2022/02/23 08:55:28;;;;;;;7.85;2.00;;;8.20;99.90;;;;;;5117983;28;20040;-85
2022/02/23 08:57:58;;;;;;;9.45;3.10;;;8.20;99.90;;;;;;5120442;28;20044;-87
2022/02/23 09:00:27;;;;;;;10.25;2.75;;;8.40;99.90;;;;;;5135242;27;20047;-86
2022/02/23 09:02:54;;;;;;;15.80;6.57;;;8.30;99.90;;;;;;5142349;27;20048;-85
2022/02/23 09:05:22;;;;;;;14.50;5.10;;;8.20;99.90;;;;;;5124451;28;20047;-81
2022/02/23 09:07:49;;;;;;;19.52;7.10;;;8.30;99.90;;;;;;5143774;27;20051;-84
2022/02/23 09:10:16;;;;;;;15.48;4.32;;;8.50;99.90;;;;;;5135672;27;20035;-85
2022/02/23 09:12:44;;;;;;;18.60;4.90;;;9.00;99.90;;;;;;5129363;27;20044;-84
2022/02/23 09:15:12;;;;;;;9.00;2.65;;;9.40;99.90;;;;;;5141723;27;20045;-84
2022/02/23 09:17:39;;;;;;;6.75;2.30;;;10.50;99.90;;;;;;5159435;27;20047;-85
2022/02/23 09:20:07;;;;;;;7.72;1.67;;;11.00;99.90;;;;;;5129429;27;20054;-84
2022/02/23 09:22:35;;;;;;;4.75;1.30;;;11.70;99.90;;;;;;5127354;28;20055;-86
2022/02/23 09:25:02;;;;;;;12.40;5.90;;;12.30;99.90;;;;;;5142561;27;20051;-84
2022/02/23 09:27:29;;;;;;;4.80;1.45;;;11.20;99.90;;;;;;5141279;27;20047;-85
2022/02/23 09:29:58;;;;;;;5.07;1.27;;;10.80;99.90;;;;;;5147893;27;20051;-85
2022/02/23 09:32:25;;;;;;;9.00;1.40;;;10.50;99.90;;;;;;5152373;28;20134;-85
2022/02/23 09:34:53;;;;;;;9.48;1.90;;;10.40;99.90;;;;;;5153464;28;20066;-85
2022/02/23 09:37:20;;;;;;;4.05;1.40;;;10.40;99.90;;;;;;5152160;28;20058;-87
2022/02/23 09:39:48;;;;;;;8.77;2.22;;;11.10;99.90;;;;;;5159680;28;20059;-85
2022/02/23 09:42:15;;;;;;;6.28;1.58;;;11.30;99.90;;;;;;5157819;27;20028;-88
2022/02/23 09:44:43;;;;;;;4.07;1.15;;;10.90;99.90;;;;;;5139045;28;20100;-86
2022/02/23 09:47:11;;;;;;;3.83;1.73;;;10.50;99.90;;;;;;5138012;28;20123;-84
2022/02/23 09:49:40;;;;;;;8.77;1.73;;;10.40;99.90;;;;;;5138422;28;20048;-86
2022/02/23 09:52:08;;;;;;;7.15;1.10;;;11.10;99.90;;;;;;5153657;27;20058;-85
2022/02/23 09:54:35;;;;;;;11.00;1.60;;;10.60;99.90;;;;;;5144084;27;20052;-84
2022/02/23 09:57:03;;;;;;;7.68;1.52;;;10.30;99.90;;;;;;5134748;28;20048;-85
2022/02/23 09:59:30;;;;;;;3.72;1.15;;;11.20;99.90;;;;;;5128303;27;20151;-85
2022/02/23 10:02:00;;;;;;;4.43;1.00;;;10.80;99.90;;;;;;5174100;27;20053;-85
2022/02/23 10:04:27;;;;;;;3.50;1.20;;;10.90;99.90;;;;;;5171346;27;20051;-85
2022/02/23 10:07:01;;;;;;;7.95;2.55;;;10.70;99.90;;;;;;5152163;27;20043;-85
2022/02/23 10:09:30;;;;;;;5.82;2.10;;;10.30;99.90;;;;;;5151930;27;20054;-85
2022/02/23 10:11:57;;;;;;;8.00;1.95;;;10.50;99.90;;;;;;5147413;27;20076;-86
2022/02/23 10:14:30;;;;;;;2.72;1.58;;;9.90;99.90;;;;;;5141241;27;20050;-85
2022/02/23 10:16:58;;;;;;;5.47;1.52;;;10.80;99.90;;;;;;5128357;27;20054;-85
2022/02/23 10:19:25;;;;;;;7.57;0.93;;;11.50;99.90;;;;;;5141853;27;20054;-84
2022/02/23 10:21:56;;;;;;;8.55;1.92;;;11.40;99.90;;;;;;5129611;28;20058;-84
2022/02/23 10:24:29;;;;;;;4.80;1.53;;;12.40;99.70;;;;;;5138638;27;20051;-85
2022/02/23 10:27:01;;;;;;;5.13;1.20;;;12.00;98.10;;;;;;5146088;27;20096;-85
2022/02/23 10:29:32;;;;;;;5.45;2.65;;;11.00;98.50;;;;;;5151385;27;20138;-83
2022/02/23 10:32:00;;;;;;;5.53;3.43;;;14.80;93.90;;;;;;5137679;27;20058;-85
2022/02/23 10:34:27;;;;;;;3.60;1.30;;;16.20;82.40;;;;;;5127440;28;20055;-84
2022/02/23 10:37:02;;;;;;;5.53;2.20;;;15.50;83.90;;;;;;5123846;28;20048;-83
2022/02/23 10:39:44;;;;;;;5.07;1.00;;;15.10;77.80;;;;;;5128471;27;20044;-85
2022/02/23 10:42:13;;;;;;;4.55;1.38;;;13.50;83.50;;;;;;5127977;27;20043;-84
2022/02/23 10:44:43;;;;;;;2.28;0.98;;;12.80;86.90;;;;;;5121277;28;20054;-85
2022/02/23 10:47:14;;;;;;;7.18;2.03;;;12.10;90.20;;;;;;5134184;27;20074;-83
2022/02/23 10:49:41;;;;;;;4.18;1.85;;;13.30;90.90;;;;;;5141907;27;20105;-83
2022/02/23 10:52:11;;;;;;;9.82;1.10;;;13.90;87.20;;;;;;5136195;27;20047;-84
2022/02/23 10:54:40;;;;;;;9.77;2.85;;;12.70;87.50;;;;;;5138093;27;20062;-85
2022/02/23 10:57:22;;;;;;;5.25;2.17;;;11.70;90.50;;;;;;5147305;27;20039;-83
2022/02/23 10:59:52;;;;;;;3.72;1.60;;;11.10;91.10;;;;;;5127847;27;20051;-85
2022/02/23 11:02:19;;;;;;;5.68;1.50;;;12.90;91.40;;;;;;5160946;27;20043;-84
2022/02/23 11:04:47;;;;;;;5.53;1.75;;;13.70;88.20;;;;;;5155173;27;20054;-83
2022/02/23 11:07:14;;;;;;;7.68;1.63;;;12.60;88.40;;;;;;5138010;27;20043;-83
2022/02/23 11:09:41;;;;;;;3.47;1.23;;;12.30;87.80;;;;;;5139886;27;20051;-84
2022/02/23 11:12:11;;;;;;;5.97;0.93;;;15.10;82.00;;;;;;5127345;27;20051;-84
2022/02/23 11:14:38;;;;;;;5.18;1.50;;;17.90;72.80;;;;;;5116911;27;20050;-84
2022/02/23 11:17:08;;;;;;;3.55;1.30;;;16.10;70.20;;;;;;5124184;27;20042;-83
2022/02/23 11:19:39;;;;;;;3.65;1.10;;;16.60;72.50;;;;;;5130739;27;20073;-85
2022/02/23 11:22:06;;;;;;;4.90;1.25;;;15.60;73.50;;;;;;5117717;28;20051;-87
2022/02/23 11:24:33;;;;;;;4.60;1.77;;;15.00;73.60;;;;;;5118427;28;20055;-84
2022/02/23 11:27:09;;;;;;;5.55;1.48;;;16.40;73.00;;;;;;5123246;27;20035;-84
2022/02/23 11:29:44;;;;;;;4.78;1.67;;;19.30;65.80;;;;;;5122705;27;20408;-84
2022/02/23 11:32:12;;;;;;;2.70;1.05;;;19.40;60.50;;;;;;5117317;27;20062;-84
2022/02/23 11:34:40;;;;;;;4.13;1.48;;;18.40;62.30;;;;;;5132979;27;20043;-85
2022/02/23 11:37:12;;;;;;;4.40;1.15;;;17.60;62.00;;;;;;5138291;27;20062;-85
2022/02/23 11:39:40;;;;;;;8.30;3.28;;;16.00;65.80;;;;;;5130060;27;20046;-85
2022/02/23 11:42:12;;;;;;;2.70;1.40;;;16.70;66.60;;;;;;5138535;27;20051;-86
2022/02/23 11:44:46;;;;;;;4.95;2.15;;;17.50;64.70;;;;;;5127597;27;20044;-85
2022/02/23 11:47:34;;;;;;;2.35;1.23;;;16.40;66.40;;;;;;5117490;28;20052;-86
2022/02/23 11:50:05;;;;;;;3.97;1.17;;;18.20;63.50;;;;;;5119974;28;20062;-84
2022/02/23 11:53:11;;;;;;;9.10;2.28;;;17.70;60.00;;;;;;5125609;27;20054;-83
2022/02/23 11:55:42;;;;;;;4.30;1.33;;;17.30;61.40;;;;;;5124020;27;20289;-85
2022/02/23 11:58:45;;;;;;;2.42;1.27;;;17.70;62.20;;;;;;5163991;27;20050;-85
2022/02/23 12:01:13;;;;;;;4.13;1.20;;;19.10;58.80;;;;;;5126385;27;20538;-85
2022/02/23 12:03:44;;;;;;;4.88;1.20;;;18.90;58.20;;;;;;5131187;27;20480;-85
2022/02/23 12:06:11;;;;;;;3.00;1.15;;;17.80;59.70;;;;;;5136726;27;20043;-84
2022/02/23 12:08:55;;;;;;;15.93;2.67;;;18.90;59.40;;;;;;5129072;27;20101;-84
2022/02/23 12:11:50;;;;;;;6.53;1.80;;;17.60;58.40;;;;;;5112057;28;20051;-84
2022/02/23 12:14:17;;;;;;;8.43;3.65;;;19.00;60.10;;;;;;5118324;27;20063;-82
2022/02/23 12:16:48;;;;;;;6.80;1.83;;;19.00;57.70;;;;;;5126482;27;20046;-83
2022/02/23 12:19:41;;;;;;;5.55;1.77;;;17.70;59.30;;;;;;5144354;27;20058;-82
2022/02/23 12:22:08;;;;;;;3.30;1.50;;;16.60;61.60;;;;;;5158844;27;20066;-83
2022/02/23 12:24:43;;;;;;;116.10;63.25;;;14.60;64.40;;;;;;5129417;27;20408;-86
2022/02/23 12:27:11;;;;;;;8.38;5.38;;;13.50;69.70;;;;;;5117407;28;20059;-83
2022/02/23 12:29:37;;;;;;;4.18;1.52;;;13.80;71.00;;;;;;5116230;27;20044;-82
2022/02/23 12:32:06;;;;;;;8.93;1.42;;;14.10;68.50;;;;;;5128100;27;20043;-81
2022/02/23 12:34:36;;;;;;;5.95;1.75;;;13.20;70.90;;;;;;5135214;27;20100;-82
2022/02/23 12:37:05;;;;;;;6.72;1.60;;;14.10;71.80;;;;;;5115300;28;20055;-82
2022/02/23 12:39:33;;;;;;;4.90;1.40;;;15.50;69.20;;;;;;5130317;27;20043;-82
2022/02/23 12:42:02;;;;;;;5.35;1.67;;;17.20;65.80;;;;;;5159584;27;20058;-82
2022/02/23 12:44:32;;;;;;;4.97;1.75;;;16.40;64.90;;;;;;5136936;27;20454;-79
2022/02/23 12:47:00;;;;;;;5.05;1.85;;;16.90;65.80;;;;;;5126252;27;20050;-81
2022/02/23 12:49:27;;;;;;;8.27;2.05;;;18.60;62.70;;;;;;5135009;27;20054;-81
2022/02/23 12:51:56;;;;;;;5.07;1.05;;;20.50;58.00;;;;;;5116768;28;20048;-82
2022/02/23 12:54:25;;;;;;;2.00;0.60;;;20.90;55.10;;;;;;5116080;28;20048;-83
2022/02/23 12:56:53;;;;;;;5.55;1.20;;;22.30;52.90;;;;;;5127833;27;20489;-82
2022/02/23 12:59:21;;;;;;;4.25;1.65;;;22.00;51.50;;;;;;5115902;28;20051;-82
2022/02/23 13:01:50;;;;;;;4.00;1.10;;;21.80;53.00;;;;;;5122289;27;20051;-82
2022/02/23 13:04:19;;;;;;;4.93;1.17;;;21.80;50.80;;;;;;5134831;27;20067;-83
2022/02/23 13:06:47;;;;;;;3.72;2.05;;;22.40;51.00;;;;;;5120352;27;20043;-80
2022/02/23 13:09:19;;;;;;;5.72;1.75;;;22.80;49.50;;;;;;5133826;27;20059;-81
2022/02/23 13:11:48;;;;;;;4.60;1.95;;;22.50;49.90;;;;;;5136713;27;20051;-80
2022/02/23 13:14:19;;;;;;;4.88;0.80;;;20.90;49.70;;;;;;5134348;27;20043;-81
2022/02/23 13:16:48;;;;;;;1.50;1.00;;;18.70;53.90;;;;;;5131040;27;20044;-82
2022/02/23 13:19:18;;;;;;;4.82;0.98;;;18.20;54.90;;;;;;5116583;28;20039;-81
2022/02/23 13:21:52;;;;;;;4.50;1.23;;;17.30;57.50;;;;;;5120368;27;20043;-85
2022/02/23 13:27:45;;;;;;;1.65;1.02;;;17.00;58.30;;;;;;5134480;27;20039;-84
2022/02/23 13:30:15;;;;;;;2.13;1.95;;;17.10;58.10;;;;;;5115488;28;20063;-82
2022/02/23 13:32:45;;;;;;;6.32;2.70;;;18.40;56.30;;;;;;5122754;27;20051;-83
2022/02/23 13:35:14;;;;;;;20.50;10.38;;;19.40;54.50;;;;;;5129218;28;20054;-84
2022/02/23 13:37:45;;;;;;;8.68;3.53;;;18.40;54.00;;;;;;5126341;28;20501;-83
2022/02/23 13:40:15;;;;;;;20.70;9.27;;;17.70;55.00;;;;;;5131217;28;20074;-82
2022/02/23 13:42:45;;;;;;;58.20;38.35;;;18.30;56.10;;;;;;5138468;27;20053;-81
2022/02/23 13:45:17;;;;;;;10.07;4.82;;;18.50;56.80;;;;;;5144773;27;20052;-81
2022/02/23 13:47:49;;;;;;;9.63;5.82;;;17.30;53.70;;;;;;5128422;28;20044;-81
2022/02/23 13:50:21;;;;;;;5.25;3.22;;;15.30;58.40;;;;;;5117942;28;20054;-82
2022/02/23 13:52:50;;;;;;;7.80;3.10;;;15.10;60.80;;;;;;5114280;28;20044;-82
2022/02/23 13:55:19;;;;;;;8.27;2.35;;;14.30;62.10;;;;;;5120649;28;20054;-82
2022/02/23 13:57:50;;;;;;;6.15;2.13;;;13.70;63.40;;;;;;5119533;28;20500;-82